createdAt,value
2023-03-29T00:02:54.081Z,35.15
2023-03-29T00:06:54.011Z,35.03
2023-03-29T00:10:54.111Z,34.99
2023-03-29T00:14:54.217Z,34.95
2023-03-29T00:18:54.347Z,34.90
2023-03-29T00:22:54.425Z,34.79
2023-03-29T00:26:54.486Z,34.68
2023-03-29T00:30:54.630Z,34.57
2023-03-29T00:34:54.688Z,34.55
2023-03-29T00:38:54.823Z,34.53
2023-03-29T00:42:54.945Z,34.45
2023-03-29T00:46:55.101Z,34.48
2023-03-29T00:50:55.789Z,34.44
2023-03-29T00:54:55.305Z,34.30
2023-03-29T00:58:55.441Z,34.30
2023-03-29T01:02:55.594Z,34.24
2023-03-29T01:06:55.680Z,34.14
2023-03-29T01:10:55.800Z,34.12
2023-03-29T01:14:55.927Z,34.13
2023-03-29T01:18:56.104Z,34.07
2023-03-29T01:22:56.205Z,34.01
2023-03-29T01:26:56.342Z,33.99
2023-03-29T01:30:56.512Z,33.96
2023-03-29T01:34:56.645Z,33.91
2023-03-29T01:38:56.801Z,33.86
2023-03-29T01:42:56.927Z,33.83
2023-03-29T01:46:57.094Z,33.70
2023-03-29T01:50:57.283Z,33.60
2023-03-29T01:54:57.401Z,33.66
2023-03-29T01:58:57.590Z,33.56
2023-03-29T02:02:57.914Z,33.51
2023-03-29T02:06:57.937Z,33.45
2023-03-29T02:10:58.122Z,33.48
2023-03-29T02:14:58.305Z,33.42
2023-03-29T02:18:58.455Z,33.40
2023-03-29T02:22:58.676Z,33.39
2023-03-29T02:26:58.858Z,33.33
2023-03-29T02:30:59.087Z,33.30
2023-03-29T02:34:59.209Z,33.29
2023-03-29T02:38:59.344Z,33.27
2023-03-29T02:42:59.572Z,33.22
2023-03-29T02:46:59.849Z,33.16
2023-03-29T02:51:00.131Z,33.16
2023-03-29T02:55:00.119Z,33.14
2023-03-29T02:59:00.331Z,33.11
2023-03-29T03:03:01.885Z,33.07
2023-03-29T03:07:00.815Z,33.07
2023-03-29T03:11:01.187Z,33.01
2023-03-29T03:15:01.117Z,33.05
2023-03-29T03:19:01.045Z,33.05
2023-03-29T03:23:01.022Z,33.01
2023-03-29T03:27:01.007Z,33.04
2023-03-29T03:31:01.072Z,33.08
2023-03-29T03:35:00.930Z,33.01
2023-03-29T03:39:00.860Z,33.06
2023-03-29T03:43:00.814Z,33.01
2023-03-29T03:47:00.774Z,33.01
2023-03-29T03:51:01.045Z,32.99
2023-03-29T03:55:00.733Z,32.99
2023-03-29T03:59:00.856Z,32.97
2023-03-29T04:03:01.220Z,32.93
2023-03-29T04:07:01.009Z,32.97
2023-03-29T04:11:01.201Z,32.91
2023-03-29T04:15:00.964Z,32.93
2023-03-29T04:19:00.941Z,32.91
2023-03-29T04:23:00.869Z,32.94
2023-03-29T04:27:00.806Z,32.93
2023-03-29T04:31:01.035Z,32.93
2023-03-29T04:35:00.760Z,32.85
2023-03-29T04:39:00.685Z,32.91
2023-03-29T04:43:00.932Z,32.90
2023-03-29T04:47:00.769Z,32.85
2023-03-29T04:51:01.031Z,32.95
2023-03-29T04:55:00.743Z,33.97
2023-03-29T04:59:00.714Z,34.45
2023-03-29T05:03:00.785Z,35.21
2023-03-29T05:07:00.624Z,35.83
2023-03-29T05:11:00.791Z,36.35
2023-03-29T05:15:00.525Z,37.02
2023-03-29T05:19:00.477Z,37.86
2023-03-29T05:23:00.608Z,38.66
2023-03-29T05:27:00.796Z,39.53
2023-03-29T05:31:01.571Z,39.22
2023-03-29T05:35:01.245Z,39.85
2023-03-29T05:39:01.420Z,41.44
2023-03-29T05:43:01.865Z,42.99
2023-03-29T05:47:01.861Z,45.29
2023-03-29T05:51:02.061Z,45.61
2023-03-29T05:55:01.975Z,47.06
2023-03-29T05:59:02.386Z,47.44
2023-03-29T06:03:13.620Z,47.78
2023-03-29T06:07:03.384Z,48.39
2023-03-29T06:11:04.532Z,48.31
2023-03-29T06:15:01.994Z,49.17
2023-03-29T06:19:01.984Z,49.82
2023-03-29T06:23:01.919Z,50.57
2023-03-29T06:27:01.889Z,51.12
2023-03-29T06:31:02.266Z,51.44
2023-03-29T06:35:01.795Z,51.40
2023-03-29T06:39:01.765Z,51.14
2023-03-29T06:43:01.746Z,50.55
2023-03-29T06:47:01.891Z,50.17
2023-03-29T06:51:01.893Z,49.98
2023-03-29T06:55:01.897Z,49.87
2023-03-29T06:59:01.585Z,50.23
2023-03-29T07:03:02.026Z,50.85
2023-03-29T07:07:01.738Z,51.55
2023-03-29T07:11:02.035Z,51.72
2023-03-29T07:15:01.909Z,52.04
2023-03-29T07:19:01.577Z,52.23
2023-03-29T07:23:01.903Z,52.43
2023-03-29T07:27:08.642Z,52.51
2023-03-29T07:31:02.196Z,52.62
2023-03-29T07:35:01.939Z,52.67
2023-03-29T07:39:01.945Z,53.16
2023-03-29T07:43:01.463Z,53.41
2023-03-29T07:47:01.916Z,52.63
2023-03-29T07:51:01.687Z,51.93
2023-03-29T07:55:01.398Z,51.82
2023-03-29T07:59:01.336Z,52.02
2023-03-29T08:03:01.401Z,51.84
2023-03-29T08:07:01.266Z,51.37
2023-03-29T08:11:01.419Z,51.85
2023-03-29T08:15:01.225Z,51.70
2023-03-29T08:19:01.320Z,51.37
2023-03-29T08:23:01.543Z,51.27
2023-03-29T08:27:01.692Z,51.56
2023-03-29T08:31:02.205Z,51.51
2023-03-29T08:35:02.091Z,51.00
2023-03-29T08:39:02.458Z,50.97
2023-03-29T08:43:02.966Z,51.07
2023-03-29T08:47:02.704Z,51.16
2023-03-29T08:51:03.004Z,50.97
2023-03-29T08:55:03.451Z,51.29
2023-03-29T08:59:03.293Z,51.23
2023-03-29T09:03:03.553Z,51.10
2023-03-29T09:07:03.972Z,50.72
2023-03-29T09:11:03.851Z,51.08
2023-03-29T09:15:03.603Z,50.95
2023-03-29T09:19:03.562Z,50.60
2023-03-29T09:23:03.545Z,50.28
2023-03-29T09:27:03.496Z,50.62
2023-03-29T09:31:03.860Z,50.32
2023-03-29T09:35:03.495Z,50.16
2023-03-29T09:39:03.457Z,50.81
2023-03-29T09:43:03.498Z,51.46
2023-03-29T09:47:03.311Z,51.91
2023-03-29T09:51:03.686Z,51.24
2023-03-29T09:55:03.300Z,50.59
2023-03-29T09:59:03.488Z,50.96
2023-03-29T10:03:03.662Z,50.86
2023-03-29T10:07:03.799Z,50.74
2023-03-29T10:11:04.333Z,50.40
2023-03-29T10:15:04.142Z,50.25
2023-03-29T10:19:04.293Z,50.84
2023-03-29T10:23:04.456Z,50.90
2023-03-29T10:27:04.638Z,50.49
2023-03-29T10:31:04.961Z,50.13
2023-03-29T10:35:05.017Z,50.87
2023-03-29T10:39:06.250Z,50.92
2023-03-29T10:43:05.145Z,50.71
2023-03-29T10:47:05.161Z,51.67
2023-03-29T10:51:05.310Z,52.51
2023-03-29T10:55:05.222Z,52.98
2023-03-29T10:59:05.229Z,53.22
2023-03-29T11:03:05.479Z,53.44
2023-03-29T11:07:05.338Z,53.97
2023-03-29T11:11:05.422Z,54.37
2023-03-29T11:15:05.233Z,54.27
2023-03-29T11:19:05.192Z,54.08
2023-03-29T11:23:05.167Z,54.28
2023-03-29T11:27:05.156Z,54.88
2023-03-29T11:31:05.794Z,55.23
2023-03-29T11:35:05.086Z,54.58
2023-03-29T11:39:05.056Z,54.37
2023-03-29T11:43:04.995Z,53.97
2023-03-29T11:47:05.213Z,53.61
2023-03-29T11:51:05.130Z,53.04
2023-03-29T11:55:05.093Z,53.08
2023-03-29T11:59:05.101Z,53.02
2023-03-29T12:03:05.136Z,52.91
2023-03-29T12:07:05.086Z,52.91
2023-03-29T12:11:05.264Z,52.97
2023-03-29T12:15:05.205Z,53.24
2023-03-29T12:19:05.247Z,52.87
2023-03-29T12:23:05.138Z,52.73
2023-03-29T12:27:05.147Z,53.09
2023-03-29T12:31:05.362Z,53.10
2023-03-29T12:35:05.169Z,52.82
2023-03-29T12:39:05.149Z,52.76
2023-03-29T12:43:05.122Z,53.15
2023-03-29T12:47:05.137Z,53.30
2023-03-29T12:51:05.119Z,53.00
2023-03-29T12:55:05.152Z,53.02
2023-03-29T12:59:05.109Z,53.03
2023-03-29T13:03:05.165Z,52.82
2023-03-29T13:07:05.157Z,52.49
2023-03-29T13:11:05.245Z,52.85
2023-03-29T13:15:05.316Z,53.01
2023-03-29T13:19:05.338Z,52.88
2023-03-29T13:23:05.408Z,52.71
2023-03-29T13:27:05.501Z,53.05
2023-03-29T13:31:05.464Z,53.29
2023-03-29T13:35:05.465Z,52.97
2023-03-29T13:39:05.498Z,52.12
2023-03-29T13:43:05.392Z,52.44
2023-03-29T13:47:05.507Z,52.91
2023-03-29T13:51:05.413Z,52.88
2023-03-29T13:55:05.459Z,52.78
2023-03-29T13:59:05.402Z,52.96
2023-03-29T14:03:05.469Z,52.86
2023-03-29T14:07:05.377Z,52.62
2023-03-29T14:11:05.396Z,52.06
2023-03-29T14:15:05.401Z,52.08
2023-03-29T14:19:05.440Z,52.71
2023-03-29T14:23:05.421Z,53.00
2023-03-29T14:27:05.425Z,52.61
2023-03-29T14:31:05.427Z,52.42
2023-03-29T14:35:05.436Z,52.60
2023-03-29T14:39:05.394Z,53.08
2023-03-29T14:43:05.409Z,52.21
2023-03-29T14:47:05.453Z,52.07
2023-03-29T14:51:05.448Z,52.30
2023-03-29T14:55:05.520Z,52.82
2023-03-29T14:59:05.438Z,53.15
2023-03-29T15:03:05.573Z,52.88
2023-03-29T15:07:05.519Z,52.78
2023-03-29T15:11:05.572Z,53.22
2023-03-29T15:15:05.650Z,53.45
2023-03-29T15:19:05.663Z,52.91
2023-03-29T15:23:05.850Z,52.89
2023-03-29T15:27:05.682Z,53.31
2023-03-29T15:31:08.113Z,53.56
2023-03-29T15:35:05.622Z,52.45
2023-03-29T15:39:05.610Z,53.36
2023-03-29T15:43:05.560Z,53.74
2023-03-29T15:47:05.579Z,54.09
2023-03-29T15:51:06.830Z,53.88
2023-03-29T15:55:05.449Z,53.94
2023-03-29T15:59:05.394Z,54.32
2023-03-29T16:03:05.424Z,54.63
2023-03-29T16:07:05.344Z,54.34
2023-03-29T16:11:05.322Z,54.36
2023-03-29T16:15:05.254Z,54.32
2023-03-29T16:19:05.213Z,54.88
2023-03-29T16:23:05.184Z,54.80
2023-03-29T16:27:05.151Z,54.74
2023-03-29T16:31:05.110Z,55.33
2023-03-29T16:35:05.069Z,55.77
2023-03-29T16:39:05.044Z,55.23
2023-03-29T16:43:05.106Z,55.01
2023-03-29T16:47:05.135Z,54.92
2023-03-29T16:51:05.198Z,55.52
2023-03-29T16:55:05.212Z,55.72
2023-03-29T16:59:05.279Z,55.62
2023-03-29T17:03:05.457Z,55.34
2023-03-29T17:07:05.517Z,55.23
2023-03-29T17:11:05.528Z,55.06
2023-03-29T17:15:05.737Z,54.82
2023-03-29T17:19:05.636Z,54.67
2023-03-29T17:23:05.739Z,54.49
2023-03-29T17:27:05.856Z,54.35
2023-03-29T17:31:05.995Z,54.11
2023-03-29T17:35:06.036Z,53.89
2023-03-29T17:39:06.163Z,53.68
2023-03-29T17:43:06.226Z,53.65
2023-03-29T17:47:06.391Z,53.53
2023-03-29T17:51:06.504Z,53.30
2023-03-29T17:55:06.634Z,53.10
2023-03-29T17:59:06.745Z,52.96
2023-03-29T18:03:06.947Z,52.84
2023-03-29T18:07:07.061Z,52.78
2023-03-29T18:11:07.165Z,52.66
2023-03-29T18:15:07.309Z,52.34
2023-03-29T18:19:07.439Z,52.19
2023-03-29T18:23:07.681Z,52.01
2023-03-29T18:27:07.785Z,51.86
2023-03-29T18:31:07.925Z,51.74
2023-03-29T18:35:08.107Z,51.61
2023-03-29T18:39:08.276Z,51.52
2023-03-29T18:43:08.430Z,51.42
2023-03-29T18:47:08.599Z,51.23
2023-03-29T18:51:08.775Z,51.25
2023-03-29T18:55:08.937Z,51.17
2023-03-29T18:59:09.144Z,51.01
2023-03-29T19:03:09.520Z,50.98
2023-03-29T19:07:09.478Z,50.87
2023-03-29T19:11:09.638Z,50.69
2023-03-29T19:15:09.837Z,50.41
2023-03-29T19:19:10.011Z,50.31
2023-03-29T19:23:10.212Z,50.20
2023-03-29T19:27:12.570Z,49.94
2023-03-29T19:31:10.728Z,49.80
2023-03-29T19:35:10.819Z,49.67
2023-03-29T19:39:11.010Z,49.59
2023-03-29T19:43:11.219Z,49.34
2023-03-29T19:47:11.433Z,49.25
2023-03-29T19:51:11.624Z,49.19
2023-03-29T19:55:11.834Z,49.06
2023-03-29T19:59:12.103Z,48.89
2023-03-29T20:03:12.380Z,48.84
2023-03-29T20:07:12.537Z,48.81
2023-03-29T20:11:12.477Z,48.70
2023-03-29T20:15:12.463Z,48.58
2023-03-29T20:19:12.427Z,48.42
2023-03-29T20:23:12.353Z,48.19
2023-03-29T20:27:12.321Z,48.30
2023-03-29T20:31:13.217Z,48.02
2023-03-29T20:35:12.280Z,47.93
2023-03-29T20:39:12.269Z,47.79
2023-03-29T20:43:12.236Z,47.77
2023-03-29T20:47:12.305Z,47.60
2023-03-29T20:51:12.249Z,47.61
2023-03-29T20:55:12.218Z,47.29
2023-03-29T20:59:12.222Z,47.40
2023-03-29T21:03:12.231Z,47.10
2023-03-29T21:07:12.112Z,46.87
2023-03-29T21:11:12.100Z,46.96
2023-03-29T21:15:12.023Z,47.02
2023-03-29T21:19:12.012Z,46.96
2023-03-29T21:23:11.942Z,46.88
2023-03-29T21:27:12.132Z,46.53
2023-03-29T21:31:12.162Z,46.50
2023-03-29T21:35:12.046Z,46.35
2023-03-29T21:39:12.042Z,46.43
2023-03-29T21:43:12.012Z,46.37
2023-03-29T21:47:11.950Z,45.99
2023-03-29T21:51:11.924Z,46.16
2023-03-29T21:55:11.868Z,46.23
2023-03-29T21:59:11.841Z,46.11
2023-03-29T22:03:11.812Z,45.93
2023-03-29T22:07:11.783Z,46.03
2023-03-29T22:11:11.729Z,45.94
2023-03-29T22:15:11.694Z,45.98
2023-03-29T22:19:11.631Z,45.70
2023-03-29T22:23:11.607Z,45.77
2023-03-29T22:27:11.606Z,45.67
2023-03-29T22:31:11.532Z,45.46
2023-03-29T22:35:11.497Z,45.56
2023-03-29T22:39:11.470Z,45.34
2023-03-29T22:43:11.435Z,45.25
2023-03-29T22:47:11.401Z,45.37
2023-03-29T22:51:11.558Z,45.22
2023-03-29T22:55:11.581Z,45.22
2023-03-29T22:59:11.480Z,45.12
2023-03-29T23:03:11.488Z,44.96
2023-03-29T23:07:11.409Z,45.06
2023-03-29T23:11:11.384Z,44.87
2023-03-29T23:15:11.353Z,45.00
2023-03-29T23:19:11.324Z,44.75
2023-03-29T23:23:12.248Z,44.79
2023-03-29T23:27:11.241Z,44.84
2023-03-29T23:31:11.223Z,44.62
2023-03-29T23:35:11.249Z,44.64
2023-03-29T23:39:11.441Z,44.53
2023-03-29T23:43:11.627Z,44.52
2023-03-29T23:47:11.825Z,44.49
2023-03-29T23:51:11.822Z,44.38
2023-03-29T23:55:11.758Z,44.25
2023-03-29T23:59:11.689Z,44.26
